createdAt,value
2017-08-04T00:00:13.261Z,8.17
2017-08-04T00:02:41.992Z,8.23
2017-08-04T00:05:10.636Z,8.10
2017-08-04T00:07:38.252Z,7.80
2017-08-04T00:10:05.883Z,8.30
2017-08-04T00:12:33.531Z,7.40
2017-08-04T00:15:01.154Z,8.00
2017-08-04T00:17:29.405Z,7.50
2017-08-04T00:19:59.503Z,8.30
2017-08-04T00:22:28.292Z,7.80
2017-08-04T00:24:58.130Z,7.30
2017-08-04T00:27:25.924Z,6.80
2017-08-04T00:29:53.580Z,6.30
2017-08-04T00:32:21.246Z,6.23
2017-08-04T00:34:48.857Z,6.60
2017-08-04T00:37:17.253Z,6.50
2017-08-04T00:39:46.768Z,6.10
2017-08-04T00:42:14.414Z,5.97
2017-08-04T00:44:42.941Z,5.10
2017-08-04T00:47:12.135Z,6.80
2017-08-04T00:49:39.780Z,6.43
2017-08-04T00:52:07.454Z,5.93
2017-08-04T00:54:36.237Z,6.30
2017-08-04T00:57:04.291Z,6.00
2017-08-04T00:59:34.376Z,5.97
2017-08-04T01:02:04.380Z,7.07
2017-08-04T01:04:32.037Z,6.20
2017-08-04T01:06:59.640Z,5.93
2017-08-04T01:09:28.675Z,6.73
2017-08-04T01:11:58.020Z,6.97
2017-08-04T01:14:25.602Z,6.33
2017-08-04T01:16:53.229Z,6.87
2017-08-04T01:19:21.295Z,6.50
2017-08-04T01:21:48.910Z,6.70
2017-08-04T01:24:17.350Z,6.47
2017-08-04T01:26:46.784Z,6.80
2017-08-04T01:29:14.425Z,7.33
2017-08-04T01:31:42.256Z,6.50
2017-08-04T01:34:09.841Z,6.80
2017-08-04T01:36:38.442Z,7.10
2017-08-04T01:39:06.889Z,6.80
2017-08-04T01:41:34.465Z,6.50
2017-08-04T01:44:02.066Z,6.60
2017-08-04T01:46:31.133Z,7.00
2017-08-04T01:48:59.399Z,6.90
2017-08-04T01:51:28.255Z,6.90
2017-08-04T01:53:57.574Z,7.20
2017-08-04T01:56:25.371Z,7.10
2017-08-04T01:58:53.462Z,7.10
2017-08-04T02:01:21.871Z,6.87
2017-08-04T02:03:50.285Z,6.10
2017-08-04T02:06:20.111Z,7.50
2017-08-04T02:08:49.595Z,6.43
2017-08-04T02:11:18.161Z,6.90
2017-08-04T02:13:45.799Z,7.30
2017-08-04T02:16:14.189Z,8.37
2017-08-04T02:18:41.816Z,7.20
2017-08-04T02:21:09.766Z,6.40
2017-08-04T02:23:37.384Z,6.80
2017-08-04T02:26:06.387Z,6.10
2017-08-04T02:28:35.070Z,7.00
2017-08-04T02:31:03.643Z,7.50
2017-08-04T02:33:32.264Z,6.63
2017-08-04T02:35:59.883Z,7.70
2017-08-04T02:38:27.599Z,6.83
2017-08-04T02:40:56.039Z,7.47
2017-08-04T02:43:24.608Z,7.20
2017-08-04T02:45:53.196Z,7.73
2017-08-04T02:48:21.808Z,7.40
2017-08-04T02:50:49.451Z,6.80
2017-08-04T02:53:17.598Z,7.20
2017-08-04T02:55:45.622Z,6.93
2017-08-04T02:58:14.013Z,7.43
2017-08-04T03:00:43.031Z,7.10
2017-08-04T03:03:11.924Z,7.83
2017-08-04T03:05:41.092Z,6.50
2017-08-04T03:08:09.424Z,6.77
2017-08-04T03:10:36.974Z,5.93
2017-08-04T03:13:05.417Z,6.80
2017-08-04T03:15:34.459Z,6.70
2017-08-04T03:18:02.069Z,7.07
2017-08-04T03:20:29.674Z,7.30
2017-08-04T03:22:57.299Z,6.93
2017-08-04T03:25:24.951Z,6.80
2017-08-04T03:27:52.525Z,7.50
2017-08-04T03:30:20.172Z,6.90
2017-08-04T03:32:47.798Z,7.53
2017-08-04T03:35:16.932Z,7.87
2017-08-04T03:37:45.447Z,8.20
2017-08-04T03:40:13.222Z,9.17
2017-08-04T03:42:40.840Z,8.70
2017-08-04T03:45:08.462Z,9.50
2017-08-04T03:47:36.746Z,7.70
2017-08-04T03:50:05.150Z,8.10
2017-08-04T03:52:33.647Z,8.00
2017-08-04T03:55:02.087Z,9.60
2017-08-04T03:57:30.541Z,7.83
2017-08-04T03:59:58.181Z,7.70
2017-08-04T04:02:25.817Z,10.23
2017-08-04T04:04:53.457Z,9.80
2017-08-04T04:07:21.173Z,7.77
2017-08-04T04:09:48.907Z,7.57
2017-08-04T04:12:16.510Z,6.63
2017-08-04T04:14:44.623Z,7.00
2017-08-04T04:17:12.239Z,6.70
2017-08-04T04:19:39.831Z,7.30
2017-08-04T04:22:07.946Z,7.60
2017-08-04T04:24:36.291Z,7.27
2017-08-04T04:27:05.190Z,6.87
2017-08-04T04:29:33.506Z,9.27
2017-08-04T04:32:02.428Z,7.47
2017-08-04T04:34:30.411Z,7.33
2017-08-04T04:36:58.049Z,7.80
2017-08-04T04:39:26.556Z,7.03
2017-08-04T04:41:56.298Z,7.17
2017-08-04T04:44:24.032Z,6.90
2017-08-04T04:46:51.718Z,6.30
2017-08-04T04:49:19.344Z,6.87
2017-08-04T04:51:46.914Z,7.60
2017-08-04T04:54:14.579Z,6.90
2017-08-04T04:56:42.249Z,7.30
2017-08-04T05:01:41.676Z,7.77
2017-08-04T05:07:31.089Z,7.07
2017-08-04T05:09:58.804Z,6.90
2017-08-04T05:12:26.457Z,7.80
2017-08-04T05:14:54.189Z,7.90
2017-08-04T05:17:21.896Z,7.27
2017-08-04T05:19:49.639Z,7.30
2017-08-04T05:22:17.360Z,6.87
2017-08-04T05:24:45.131Z,8.00
2017-08-04T05:27:12.799Z,8.30
2017-08-04T05:29:40.451Z,8.77
2017-08-04T05:32:08.766Z,8.67
2017-08-04T05:34:36.443Z,8.40
2017-08-04T05:37:04.139Z,8.60
2017-08-04T05:39:31.872Z,7.83
2017-08-04T05:41:59.512Z,8.27
2017-08-04T05:44:27.193Z,8.07
2017-08-04T05:46:54.988Z,7.97
2017-08-04T05:49:22.659Z,7.80
2017-08-04T05:51:50.421Z,9.37
2017-08-04T05:54:18.415Z,10.10
2017-08-04T05:56:46.276Z,9.20
2017-08-04T05:59:13.987Z,8.83
2017-08-04T06:01:41.692Z,9.93
2017-08-04T06:04:09.384Z,8.80
2017-08-04T06:06:37.180Z,8.90
2017-08-04T06:09:04.917Z,9.47
2017-08-04T06:11:33.315Z,8.60
2017-08-04T06:14:01.045Z,9.53
2017-08-04T06:16:28.809Z,9.40
2017-08-04T06:18:56.488Z,9.60
2017-08-04T06:21:24.139Z,9.40
2017-08-04T06:23:51.816Z,9.80
2017-08-04T06:26:19.442Z,11.60
2017-08-04T06:28:47.183Z,10.23
2017-08-04T06:31:14.952Z,9.30
2017-08-04T06:33:42.629Z,9.30
2017-08-04T06:36:10.502Z,7.97
2017-08-04T06:38:38.229Z,9.00
2017-08-04T06:41:05.915Z,7.77
2017-08-04T06:43:33.647Z,7.90
2017-08-04T06:46:01.349Z,8.27
2017-08-04T06:52:01.727Z,8.93
2017-08-04T06:54:41.046Z,7.33
2017-08-04T06:57:09.549Z,8.87
2017-08-04T06:59:37.179Z,10.10
2017-08-04T07:02:04.919Z,10.40
2017-08-04T07:04:33.513Z,9.60
2017-08-04T07:07:01.217Z,9.87
2017-08-04T07:09:28.931Z,9.70
2017-08-04T07:11:56.646Z,10.07
2017-08-04T07:14:25.044Z,8.83
2017-08-04T07:16:52.784Z,9.60
2017-08-04T07:19:20.509Z,9.03
2017-08-04T07:21:48.181Z,9.50
2017-08-04T07:24:15.877Z,9.70
2017-08-04T07:26:43.645Z,8.80
2017-08-04T07:29:11.321Z,9.57
2017-08-04T07:31:39.169Z,9.63
2017-08-04T07:34:06.888Z,9.33
2017-08-04T07:36:34.581Z,8.57
2017-08-04T07:39:02.319Z,9.27
2017-08-04T07:41:30.023Z,8.30
2017-08-04T07:43:57.724Z,7.23
2017-08-04T07:46:25.394Z,8.23
2017-08-04T07:48:53.158Z,6.97
2017-08-04T07:51:24.782Z,8.80
2017-08-04T07:53:52.564Z,7.57
2017-08-04T07:56:20.224Z,7.37
2017-08-04T07:58:48.065Z,7.27
2017-08-04T08:01:15.782Z,8.73
2017-08-04T08:03:43.471Z,7.43
2017-08-04T08:06:11.153Z,8.70
2017-08-04T08:08:38.843Z,8.37
2017-08-04T08:11:06.496Z,8.30
2017-08-04T08:13:34.163Z,9.00
2017-08-04T08:16:02.622Z,8.47
2017-08-04T08:18:30.360Z,8.30
2017-08-04T08:20:58.018Z,6.60
2017-08-04T08:23:25.670Z,7.10
2017-08-04T08:25:53.316Z,7.50
2017-08-04T08:28:20.975Z,8.43
2017-08-04T08:30:50.443Z,7.53
2017-08-04T08:33:18.180Z,8.20
2017-08-04T08:35:45.863Z,6.73
2017-08-04T08:38:13.565Z,6.70
2017-08-04T08:40:41.230Z,6.67
2017-08-04T08:43:09.875Z,8.97
2017-08-04T08:45:40.769Z,8.33
2017-08-04T08:48:09.370Z,7.00
2017-08-04T08:50:37.027Z,6.80
2017-08-04T08:53:04.740Z,7.30
2017-08-04T08:55:32.387Z,7.57
2017-08-04T08:58:00.097Z,7.70
2017-08-04T09:00:27.797Z,8.03
2017-08-04T09:02:55.708Z,7.70
2017-08-04T09:05:23.368Z,7.50
2017-08-04T09:07:51.045Z,6.80
2017-08-04T09:10:18.693Z,7.30
2017-08-04T09:12:46.811Z,6.80
2017-08-04T09:15:14.520Z,6.90
2017-08-04T09:17:42.156Z,6.30
2017-08-04T09:20:09.830Z,6.03
2017-08-04T09:22:37.538Z,6.37
2017-08-04T09:25:05.228Z,6.00
2017-08-04T09:27:34.634Z,5.73
2017-08-04T09:30:02.384Z,6.43
2017-08-04T09:32:30.133Z,6.27
2017-08-04T09:34:57.793Z,6.67
2017-08-04T09:37:25.563Z,5.50
2017-08-04T09:39:53.269Z,5.73
2017-08-04T09:42:20.989Z,5.70
2017-08-04T09:44:48.759Z,6.50
2017-08-04T09:47:16.460Z,6.07
2017-08-04T09:49:44.087Z,6.23
2017-08-04T09:52:11.772Z,6.10
2017-08-04T09:54:39.808Z,5.23
2017-08-04T09:57:07.424Z,5.73
2017-08-04T09:59:39.531Z,5.87
2017-08-04T10:02:07.324Z,6.07
2017-08-04T10:04:34.966Z,6.67
2017-08-04T10:07:03.636Z,7.70
2017-08-04T10:09:31.371Z,6.23
2017-08-04T10:11:59.007Z,6.80
2017-08-04T10:14:26.755Z,6.50
2017-08-04T10:16:54.512Z,6.30
2017-08-04T10:19:22.173Z,5.83
2017-08-04T10:21:49.943Z,6.13
2017-08-04T10:24:17.701Z,5.80
2017-08-04T10:26:47.270Z,6.53
2017-08-04T10:29:14.997Z,6.80
2017-08-04T10:31:42.670Z,6.50
2017-08-04T10:34:10.363Z,6.47
2017-08-04T10:36:38.117Z,7.20
2017-08-04T10:39:06.203Z,5.87
2017-08-04T10:41:33.961Z,5.40
2017-08-04T10:44:01.604Z,5.43
2017-08-04T10:46:29.281Z,5.23
2017-08-04T10:48:57.984Z,4.80
2017-08-04T10:51:25.749Z,5.57
2017-08-04T10:53:53.481Z,4.93
2017-08-04T10:56:22.026Z,5.10
2017-08-04T10:58:49.935Z,5.37
2017-08-04T11:01:18.894Z,5.17
2017-08-04T11:03:46.569Z,5.00
2017-08-04T11:06:14.266Z,5.30
2017-08-04T11:08:42.027Z,5.37
2017-08-04T11:11:09.701Z,5.13
2017-08-04T11:13:37.330Z,5.00
2017-08-04T11:16:05.041Z,4.80
2017-08-04T11:18:32.711Z,5.20
2017-08-04T11:21:00.444Z,4.73
2017-08-04T11:23:28.148Z,6.20
2017-08-04T11:25:55.951Z,4.90
2017-08-04T11:28:23.566Z,10.63
2017-08-04T11:30:51.248Z,5.60
2017-08-04T11:33:18.886Z,5.30
2017-08-04T11:35:46.537Z,4.90
2017-08-04T11:38:14.283Z,5.57
2017-08-04T11:40:41.928Z,5.30
2017-08-04T11:43:09.569Z,5.40
2017-08-04T11:45:37.199Z,4.67
2017-08-04T11:48:04.893Z,5.23
2017-08-04T11:50:32.595Z,5.30
2017-08-04T11:53:00.216Z,5.37
2017-08-04T11:55:29.149Z,6.00
2017-08-04T11:57:56.864Z,4.90
2017-08-04T12:00:24.556Z,5.10
2017-08-04T12:02:52.224Z,5.23
2017-08-04T12:05:19.834Z,5.73
2017-08-04T12:07:47.572Z,5.43
2017-08-04T12:10:15.200Z,5.40
2017-08-04T12:12:42.892Z,5.30
2017-08-04T12:15:10.572Z,6.20
2017-08-04T12:17:38.230Z,5.57
2017-08-04T12:20:05.850Z,5.70
2017-08-04T12:22:33.491Z,5.73
2017-08-04T12:25:01.141Z,5.70
2017-08-04T12:27:28.786Z,5.83
2017-08-04T12:29:56.403Z,5.20
2017-08-04T12:32:24.123Z,4.83
2017-08-04T12:34:51.814Z,5.23
2017-08-04T12:37:19.464Z,5.93
2017-08-04T12:39:48.436Z,5.50
2017-08-04T12:42:16.158Z,5.27
2017-08-04T12:44:43.844Z,4.77
2017-08-04T12:47:12.288Z,4.53
2017-08-04T12:49:39.931Z,4.73
2017-08-04T12:52:07.669Z,4.73
2017-08-04T12:54:35.336Z,4.83
2017-08-04T12:57:02.987Z,4.70
2017-08-04T12:59:30.712Z,5.00
2017-08-04T13:01:58.465Z,7.40
2017-08-04T13:04:26.090Z,4.33
2017-08-04T13:06:53.742Z,4.60
2017-08-04T13:09:22.176Z,3.53
2017-08-04T13:11:50.028Z,3.60
2017-08-04T13:14:17.658Z,3.33
2017-08-04T13:16:45.366Z,4.00
2017-08-04T13:19:13.020Z,3.67
2017-08-04T13:21:40.721Z,6.50
2017-08-04T13:24:08.396Z,6.40
2017-08-04T13:26:36.058Z,3.43
2017-08-04T13:29:03.713Z,3.60
2017-08-04T13:31:32.348Z,3.57
2017-08-04T13:34:00.057Z,3.73
2017-08-04T13:36:27.718Z,3.60
2017-08-04T13:38:58.048Z,3.20
2017-08-04T13:41:25.699Z,3.60
2017-08-04T13:43:54.162Z,3.80
2017-08-04T13:46:21.970Z,3.87
2017-08-04T13:48:50.376Z,3.53
2017-08-04T13:51:18.368Z,3.50
2017-08-04T13:53:46.081Z,4.37
2017-08-04T13:56:13.745Z,4.10
2017-08-04T13:58:41.400Z,4.80
2017-08-04T14:01:09.096Z,4.13
2017-08-04T14:03:36.780Z,3.30
2017-08-04T14:06:12.115Z,3.30
2017-08-04T14:08:39.892Z,3.10
2017-08-04T14:11:07.504Z,3.17
2017-08-04T14:13:35.210Z,3.30
2017-08-04T14:16:02.832Z,3.60
2017-08-04T14:18:30.508Z,3.70
2017-08-04T14:20:58.533Z,3.70
2017-08-04T14:23:26.213Z,2.90
2017-08-04T14:25:54.519Z,2.97
2017-08-04T14:28:22.237Z,3.10
2017-08-04T14:30:50.863Z,3.53
2017-08-04T14:33:18.632Z,4.17
2017-08-04T14:35:46.263Z,7.23
2017-08-04T14:38:13.907Z,4.13
2017-08-04T14:40:41.544Z,3.80
2017-08-04T14:43:09.207Z,4.63
2017-08-04T14:45:36.843Z,3.30
2017-08-04T14:48:04.839Z,3.17
2017-08-04T14:50:32.687Z,3.23
2017-08-04T14:53:00.413Z,3.77
2017-08-04T14:55:28.092Z,4.00
2017-08-04T14:57:55.748Z,3.77
2017-08-04T15:00:23.479Z,3.70
2017-08-04T15:02:52.800Z,3.90
2017-08-04T15:05:20.491Z,4.57
2017-08-04T15:07:48.200Z,4.80
2017-08-04T15:10:15.856Z,3.40
2017-08-04T15:12:43.476Z,3.30
2017-08-04T15:15:11.145Z,3.23
2017-08-04T15:17:38.858Z,2.83
2017-08-04T15:20:07.223Z,3.80
2017-08-04T15:22:34.908Z,3.17
2017-08-04T15:25:02.589Z,3.90
2017-08-04T15:27:30.349Z,3.07
2017-08-04T15:29:58.108Z,4.40
2017-08-04T15:32:25.787Z,6.20
2017-08-04T15:34:53.460Z,4.40
2017-08-04T15:37:21.092Z,3.87
2017-08-04T15:39:48.812Z,3.90
2017-08-04T15:42:16.947Z,3.40
2017-08-04T15:44:44.595Z,4.43
2017-08-04T15:47:12.359Z,3.33
2017-08-04T15:49:40.044Z,3.97
2017-08-04T15:52:08.727Z,4.70
2017-08-04T15:54:36.420Z,5.07
2017-08-04T15:57:04.105Z,3.83
2017-08-04T15:59:31.729Z,3.83
2017-08-04T16:01:59.380Z,3.63
2017-08-04T16:04:27.017Z,4.50
2017-08-04T16:06:54.668Z,4.30
2017-08-04T16:09:22.371Z,4.10
2017-08-04T16:11:50.057Z,3.43
2017-08-04T16:14:17.706Z,3.53
2017-08-04T16:16:45.381Z,4.23
2017-08-04T16:19:12.994Z,3.63
2017-08-04T16:21:40.664Z,4.17
2017-08-04T16:24:08.404Z,5.13
2017-08-04T16:26:36.039Z,5.83
2017-08-04T16:29:03.769Z,5.70
2017-08-04T16:31:31.501Z,4.17
2017-08-04T16:33:59.456Z,4.60
2017-08-04T16:36:27.116Z,4.73
2017-08-04T16:38:54.756Z,5.17
2017-08-04T16:41:22.360Z,4.60
2017-08-04T16:43:49.988Z,4.87
2017-08-04T16:46:17.694Z,4.53
2017-08-04T16:48:45.349Z,5.40
2017-08-04T16:51:13.074Z,4.93
2017-08-04T16:53:40.811Z,4.13
2017-08-04T16:56:08.485Z,5.30
2017-08-04T16:58:36.174Z,5.20
2017-08-04T17:01:03.910Z,6.00
2017-08-04T17:03:32.173Z,5.17
2017-08-04T17:05:59.785Z,6.70
2017-08-04T17:08:27.439Z,8.23
2017-08-04T17:10:55.083Z,4.97
2017-08-04T17:13:22.690Z,5.17
2017-08-04T17:15:50.391Z,6.17
2017-08-04T17:18:18.192Z,6.00
2017-08-04T17:20:45.860Z,5.47
2017-08-04T17:23:13.541Z,6.10
2017-08-04T17:25:41.190Z,12.23
2017-08-04T17:28:08.824Z,6.13
2017-08-04T17:30:36.471Z,5.27
2017-08-04T17:33:04.084Z,6.40
2017-08-04T17:35:31.736Z,7.13
2017-08-04T17:37:59.464Z,6.10
2017-08-04T17:40:27.104Z,6.83
2017-08-04T17:42:54.697Z,6.10
2017-08-04T17:45:22.426Z,6.93
2017-08-04T17:47:50.066Z,7.67
2017-08-04T17:50:17.712Z,6.13
2017-08-04T17:52:45.392Z,7.53
2017-08-04T17:55:13.031Z,7.90
2017-08-04T17:57:40.679Z,7.90
2017-08-04T18:00:08.828Z,7.67
2017-08-04T18:02:47.982Z,7.70
2017-08-04T18:05:15.661Z,6.57
2017-08-04T18:07:43.329Z,6.27
2017-08-04T18:10:11.234Z,6.87
2017-08-04T18:12:38.946Z,6.97
2017-08-04T18:15:06.619Z,7.40
2017-08-04T18:17:34.323Z,6.27
2017-08-04T18:20:02.240Z,7.13
2017-08-04T18:22:29.904Z,7.57
2017-08-04T18:24:57.784Z,7.10
2017-08-04T18:27:25.565Z,10.47
2017-08-04T18:29:53.276Z,7.73
2017-08-04T18:32:20.937Z,9.57
2017-08-04T18:34:48.506Z,8.50
2017-08-04T18:37:16.174Z,7.70
2017-08-04T18:39:43.939Z,6.87
2017-08-04T18:42:11.572Z,8.20
2017-08-04T18:44:39.244Z,7.43
2017-08-04T18:47:06.943Z,7.60
2017-08-04T18:49:35.324Z,7.67
2017-08-04T18:52:02.964Z,8.43
2017-08-04T18:54:30.627Z,6.83
2017-08-04T18:56:58.335Z,7.80
2017-08-04T18:59:27.678Z,7.60
2017-08-04T19:01:55.500Z,7.90
2017-08-04T19:04:23.201Z,7.87
2017-08-04T19:06:50.883Z,7.80
2017-08-04T19:09:19.437Z,7.40
2017-08-04T19:11:47.170Z,9.00
2017-08-04T19:14:14.848Z,9.13
2017-08-04T19:16:42.464Z,8.83
2017-08-04T19:19:10.092Z,8.53
2017-08-04T19:21:37.700Z,7.60
2017-08-04T19:24:05.378Z,9.10
2017-08-04T19:26:32.985Z,7.70
2017-08-04T19:29:00.562Z,7.30
2017-08-04T19:31:28.263Z,7.53
2017-08-04T19:33:56.024Z,7.10
2017-08-04T19:36:24.054Z,7.57
2017-08-04T19:38:51.748Z,7.30
2017-08-04T19:41:19.359Z,7.90
2017-08-04T19:43:46.976Z,8.43
2017-08-04T19:46:14.648Z,6.53
2017-08-04T19:48:42.281Z,7.83
2017-08-04T19:51:09.974Z,6.80
2017-08-04T19:53:37.629Z,7.33
2017-08-04T19:56:05.292Z,7.70
2017-08-04T19:58:32.918Z,8.73
2017-08-04T20:01:00.642Z,7.03
2017-08-04T20:03:29.699Z,7.70
2017-08-04T20:05:57.358Z,8.03
2017-08-04T20:08:25.055Z,7.77
2017-08-04T20:10:52.669Z,7.07
2017-08-04T20:13:20.297Z,6.97
2017-08-04T20:15:47.923Z,9.37
2017-08-04T20:18:15.591Z,7.17
2017-08-04T20:20:43.259Z,7.77
2017-08-04T20:23:10.974Z,8.57
2017-08-04T20:25:38.650Z,8.27
2017-08-04T20:28:06.295Z,9.30
2017-08-04T20:30:34.457Z,8.23
2017-08-04T20:33:02.847Z,8.30
2017-08-04T20:35:30.560Z,9.50
2017-08-04T20:37:58.987Z,8.40
2017-08-04T20:40:26.637Z,8.40
2017-08-04T20:42:54.240Z,8.50
2017-08-04T20:45:21.876Z,7.73
2017-08-04T20:51:13.470Z,8.40
2017-08-04T20:53:45.683Z,7.60
2017-08-04T20:56:14.192Z,7.80
2017-08-04T20:58:42.175Z,8.17
2017-08-04T21:01:10.564Z,7.63
2017-08-04T21:03:40.665Z,8.37
2017-08-04T21:06:10.206Z,7.60
2017-08-04T21:08:40.131Z,8.00
2017-08-04T21:11:09.987Z,7.50
2017-08-04T21:13:39.376Z,7.10
2017-08-04T21:16:07.651Z,6.77
2017-08-04T21:18:37.093Z,6.57
2017-08-04T21:21:06.307Z,7.70
2017-08-04T21:23:35.242Z,7.30
2017-08-04T21:26:05.499Z,6.70
2017-08-04T21:28:34.330Z,7.23
2017-08-04T21:31:03.073Z,6.87
2017-08-04T21:33:31.585Z,6.67
2017-08-04T21:36:02.289Z,6.63
2017-08-04T21:38:31.688Z,6.50
2017-08-04T21:40:59.756Z,7.10
2017-08-04T21:43:29.047Z,6.50
2017-08-04T21:45:59.701Z,6.67
2017-08-04T21:48:27.845Z,7.90
2017-08-04T21:50:57.316Z,8.20
2017-08-04T21:53:26.248Z,8.17
2017-08-04T21:55:54.185Z,6.47
2017-08-04T21:58:22.114Z,7.07
2017-08-04T22:00:51.505Z,7.00
2017-08-04T22:03:19.506Z,7.23
2017-08-04T22:05:48.697Z,6.93
2017-08-04T22:08:17.564Z,6.80
2017-08-04T22:10:46.518Z,7.27
2017-08-04T22:13:14.278Z,7.27
2017-08-04T22:15:42.903Z,6.53
2017-08-04T22:18:10.981Z,7.10
2017-08-04T22:20:38.853Z,7.30
2017-08-04T22:23:06.835Z,6.70
2017-08-04T22:25:34.730Z,6.10
2017-08-04T22:28:03.296Z,6.40
2017-08-04T22:30:30.978Z,6.10
2017-08-04T22:33:00.073Z,7.10
2017-08-04T22:35:29.748Z,6.10
2017-08-04T22:37:58.474Z,6.37
2017-08-04T22:40:27.122Z,7.37
2017-08-04T22:42:54.888Z,6.77
2017-08-04T22:45:22.620Z,6.43
2017-08-04T22:47:50.228Z,6.87
2017-08-04T22:50:17.870Z,6.80
2017-08-04T22:52:45.549Z,6.40
2017-08-04T22:55:13.227Z,6.50
2017-08-04T23:04:22.825Z,6.47
2017-08-04T23:06:50.499Z,6.50
2017-08-04T23:09:18.241Z,7.13
2017-08-04T23:11:45.965Z,6.87
2017-08-04T23:14:13.639Z,7.60
2017-08-04T23:16:41.378Z,7.30
2017-08-04T23:19:09.036Z,7.27
2017-08-04T23:21:36.760Z,6.93
2017-08-04T23:24:04.497Z,6.63
2017-08-04T23:26:32.188Z,7.10
2017-08-04T23:28:59.845Z,8.13
2017-08-04T23:31:27.513Z,8.43
2017-08-04T23:33:55.139Z,9.30
2017-08-04T23:36:22.848Z,7.30
2017-08-04T23:38:50.572Z,7.23
2017-08-04T23:41:18.228Z,7.10
2017-08-04T23:43:45.847Z,6.90
2017-08-04T23:46:13.550Z,7.33
2017-08-04T23:48:41.232Z,7.80
2017-08-04T23:51:08.886Z,7.93
2017-08-04T23:53:36.567Z,7.03
2017-08-04T23:56:04.182Z,7.90
2017-08-04T23:58:31.822Z,8.50
